Time;durP1;ratioP1;P1;durP2;ratioP2;P2;SDS_P1;SDS_P2;PMS_P1;PMS_P2;Temp;Humidity;BMP_temperature;BMP_pressure;BME280_temperature;BME280_humidity;BME280_pressure;Samples;Min_cycle;Max_cycle;Signal;HPM_P1;HPM_P2
2021/01/01 00:00:45;;;;;;;39.07;28.30;;;;;;;;;;5056275;28;20212;-57
2021/01/01 00:03:21;;;;;;;;;;;;;;;;;;;;;
2021/01/01 00:05:47;;;;;;;40.80;28.80;;;;;;;;;;5060233;28;20550;-58
2021/01/01 00:08:13;;;;;;;41.77;29.80;;;;;;;;;;5054958;28;20511;-58
2021/01/01 00:10:39;;;;;;;37.40;27.67;;;;;;;;;;5057776;28;20423;-58
2021/01/01 00:13:05;;;;;;;40.03;28.10;;;;;;;;;;5046191;28;20776;-58
2021/01/01 00:15:31;;;;;;;38.17;28.20;;;;;;;;;;5048217;28;20423;-58
2021/01/01 00:17:57;;;;;;;36.93;27.03;;;;;;;;;;5046427;28;20518;-58
2021/01/01 00:20:24;;;;;;;40.30;28.60;;;;;;;;;;5063267;28;20514;-57
2021/01/01 00:22:50;;;;;;;38.53;27.93;;;;;;;;;;5051811;28;20511;-58
2021/01/01 00:25:16;;;;;;;40.63;28.70;;;;;;;;;;5054840;28;20928;-57
2021/01/01 00:27:42;;;;;;;39.00;27.87;;;;;;;;;;5055018;28;20901;-58
2021/01/01 00:30:08;;;;;;;37.50;27.37;;;;;;;;;;5041847;28;20452;-58
2021/01/01 00:32:34;;;;;;;36.90;27.53;;;;;;;;;;5048707;28;20548;-58
2021/01/01 00:35:00;;;;;;;44.77;29.90;;;;;;;;;;5071443;28;20423;-58
2021/01/01 00:37:27;;;;;;;36.90;27.43;;;;;;;;;;5065470;28;20438;-60
2021/01/01 00:39:53;;;;;;;41.43;30.10;;;;;;;;;;5069240;28;20199;-58
2021/01/01 00:42:19;;;;;;;37.70;28.10;;;;;;;;;;5048625;28;20420;-58
2021/01/01 00:44:45;;;;;;;33.53;26.80;;;;;;;;;;5057269;28;20437;-60
2021/01/01 00:47:11;;;;;;;40.00;27.60;;;;;;;;;;5063181;28;20863;-58
2021/01/01 00:49:39;;;;;;;38.77;28.13;;;;;;;;;;5071755;28;20414;-57
2021/01/01 00:52:05;;;;;;;34.47;26.60;;;;;;;;;;5053259;28;20419;-57
2021/01/01 00:54:32;;;;;;;37.37;26.50;;;;;;;;;;5045907;28;20430;-59
2021/01/01 00:56:58;;;;;;;37.17;27.87;;;;;;;;;;5037375;28;20419;-58
2021/01/01 00:59:24;;;;;;;36.40;27.47;;;;;;;;;;5060321;28;20846;-58
2021/01/01 01:01:50;;;;;;;34.93;24.50;;;;;;;;;;5070022;28;20466;-58
2021/01/01 01:04:16;;;;;;;35.17;25.50;;;;;;;;;;5057403;28;20440;-61
2021/01/01 01:06:42;;;;;;;34.27;25.63;;;;;;;;;;5092071;28;20450;-58
2021/01/01 01:09:09;;;;;;;34.87;25.60;;;;;;;;;;5083542;28;20441;-57
2021/01/01 01:11:35;;;;;;;34.50;26.23;;;;;;;;;;5071833;28;20929;-57
2021/01/01 01:14:02;;;;;;;31.93;24.50;;;;;;;;;;5071562;28;20176;-58
2021/01/01 01:16:30;;;;;;;33.13;24.10;;;;;;;;;;5060438;28;20208;-58
2021/01/01 01:18:56;;;;;;;32.67;24.43;;;;;;;;;;5069766;28;20418;-57
2021/01/01 01:21:23;;;;;;;34.30;24.47;;;;;;;;;;5069109;28;20441;-58
2021/01/01 01:23:49;;;;;;;35.47;25.63;;;;;;;;;;5068526;28;20438;-58
2021/01/01 01:26:15;;;;;;;36.93;24.97;;;;;;;;;;5038393;28;20453;-57
2021/01/01 01:28:41;;;;;;;33.70;24.60;;;;;;;;;;5053367;28;20420;-57
2021/01/01 01:31:07;;;;;;;29.97;23.20;;;;;;;;;;5062306;28;21027;-58
2021/01/01 01:33:33;;;;;;;37.60;24.83;;;;;;;;;;5069605;28;20426;-57
2021/01/01 01:36:00;;;;;;;34.57;24.43;;;;;;;;;;5052757;28;20415;-57
2021/01/01 01:38:27;;;;;;;32.40;24.87;;;;;;;;;;5064388;28;20424;-57
2021/01/01 01:40:53;;;;;;;37.17;24.77;;;;;;;;;;5037724;28;20444;-57
2021/01/01 01:43:19;;;;;;;33.10;23.23;;;;;;;;;;5039040;28;20422;-57
2021/01/01 01:45:45;;;;;;;37.10;25.73;;;;;;;;;;5062237;28;20489;-57
2021/01/01 01:48:13;;;;;;;32.50;24.10;;;;;;;;;;5065187;28;20500;-58
2021/01/01 01:50:39;;;;;;;30.93;23.37;;;;;;;;;;5053205;28;20517;-58
2021/01/01 01:53:06;;;;;;;30.13;23.23;;;;;;;;;;5059148;28;20412;-57
2021/01/01 01:55:36;;;;;;;30.90;23.03;;;;;;;;;;5054100;28;20825;-60
2021/01/01 01:58:03;;;;;;;28.80;22.57;;;;;;;;;;5035087;28;20415;-57
2021/01/01 02:00:57;;;;;;;32.20;22.97;;;;;;;;;;5043504;28;20484;-58
2021/01/01 02:03:17;;;;;;;32.57;23.60;;;;;;;;;;5069708;28;20492;-58
2021/01/01 02:05:43;;;;;;;30.97;23.60;;;;;;;;;;5052736;28;20980;-57
2021/01/01 02:08:10;;;;;;;31.07;23.07;;;;;;;;;;5054701;28;20755;-57
2021/01/01 02:10:36;;;;;;;30.60;22.70;;;;;;;;;;5052643;28;21145;-57
2021/01/01 02:13:02;;;;;;;27.90;21.57;;;;;;;;;;5071261;28;20399;-57
2021/01/01 02:15:29;;;;;;;29.77;21.87;;;;;;;;;;5059563;28;20423;-58
2021/01/01 02:17:56;;;;;;;29.17;21.80;;;;;;;;;;5050865;28;20899;-57
2021/01/01 02:20:22;;;;;;;29.30;21.17;;;;;;;;;;5055342;28;20838;-57
2021/01/01 02:22:48;;;;;;;29.93;21.93;;;;;;;;;;5062789;28;21260;-58
2021/01/01 02:25:14;;;;;;;31.93;22.00;;;;;;;;;;5036831;28;20451;-59
2021/01/01 02:27:40;;;;;;;30.00;22.57;;;;;;;;;;5069367;28;20239;-57
2021/01/01 02:30:07;;;;;;;29.50;21.53;;;;;;;;;;5063280;28;20439;-57
2021/01/01 02:32:33;;;;;;;29.70;21.90;;;;;;;;;;5068964;28;20947;-58
2021/01/01 02:34:59;;;;;;;28.57;21.17;;;;;;;;;;5070575;28;20890;-57
2021/01/01 02:37:25;;;;;;;28.30;21.27;;;;;;;;;;5070677;28;20403;-57
2021/01/01 02:39:51;;;;;;;27.47;21.40;;;;;;;;;;5065171;28;20427;-57
2021/01/01 02:42:18;;;;;;;28.90;21.97;;;;;;;;;;5050277;28;20822;-59
2021/01/01 02:44:44;;;;;;;27.33;20.80;;;;;;;;;;5054500;28;20415;-58
2021/01/01 02:47:10;;;;;;;29.37;21.63;;;;;;;;;;5051711;28;20455;-57
2021/01/01 02:49:36;;;;;;;29.30;22.30;;;;;;;;;;5064131;28;20414;-57
2021/01/01 02:52:02;;;;;;;27.27;20.33;;;;;;;;;;5069803;28;20419;-57
2021/01/01 02:54:28;;;;;;;30.17;21.43;;;;;;;;;;5061813;28;20846;-57
2021/01/01 02:56:54;;;;;;;27.03;21.37;;;;;;;;;;5037513;28;20507;-57
2021/01/01 02:59:21;;;;;;;26.43;19.63;;;;;;;;;;5064038;28;20591;-57
2021/01/01 03:01:47;;;;;;;28.03;20.40;;;;;;;;;;5073489;28;20478;-57
2021/01/01 03:04:13;;;;;;;32.03;21.53;;;;;;;;;;5055001;28;20517;-59
2021/01/01 03:06:39;;;;;;;26.53;20.27;;;;;;;;;;5053841;28;20462;-57
2021/01/01 03:09:06;;;;;;;26.37;19.73;;;;;;;;;;5055786;28;20472;-57
2021/01/01 03:11:32;;;;;;;25.40;19.53;;;;;;;;;;5054696;28;20201;-57
2021/01/01 03:13:58;;;;;;;26.40;20.37;;;;;;;;;;5053860;28;20428;-57
2021/01/01 03:16:24;;;;;;;25.80;20.10;;;;;;;;;;5053645;28;20426;-57
2021/01/01 03:18:51;;;;;;;29.37;21.10;;;;;;;;;;5055648;28;20419;-57
2021/01/01 03:21:20;;;;;;;28.93;19.90;;;;;;;;;;5066023;28;20428;-57
2021/01/01 03:23:46;;;;;;;31.20;20.97;;;;;;;;;;5035905;28;20515;-57
2021/01/01 03:26:13;;;;;;;29.53;20.20;;;;;;;;;;5067460;28;20462;-57
2021/01/01 03:28:39;;;;;;;29.43;19.93;;;;;;;;;;5073420;28;20403;-60
2021/01/01 03:31:05;;;;;;;27.50;20.03;;;;;;;;;;5068539;28;20473;-57
2021/01/01 03:33:31;;;;;;;26.17;19.97;;;;;;;;;;5071590;28;20179;-57
2021/01/01 03:35:57;;;;;;;27.10;19.83;;;;;;;;;;5064816;28;20434;-57
2021/01/01 03:38:23;;;;;;;25.00;18.73;;;;;;;;;;5054446;28;20415;-57
2021/01/01 03:40:49;;;;;;;25.20;19.30;;;;;;;;;;5061215;28;20238;-58
2021/01/01 03:43:15;;;;;;;23.60;19.60;;;;;;;;;;5067984;28;20438;-57
2021/01/01 03:45:41;;;;;;;27.63;19.27;;;;;;;;;;5051978;28;20515;-57
2021/01/01 03:48:08;;;;;;;26.47;19.07;;;;;;;;;;5054746;28;20418;-57
2021/01/01 03:50:34;;;;;;;26.97;18.90;;;;;;;;;;5067843;28;20175;-57
2021/01/01 03:53:00;;;;;;;25.83;19.13;;;;;;;;;;5056956;28;20955;-58
2021/01/01 03:55:26;;;;;;;27.27;19.03;;;;;;;;;;5051778;28;20461;-57
2021/01/01 03:57:52;;;;;;;25.33;19.20;;;;;;;;;;5034838;28;20426;-57
2021/01/01 04:00:19;;;;;;;25.37;19.30;;;;;;;;;;5061200;28;20427;-60
2021/01/01 04:02:45;;;;;;;26.30;18.67;;;;;;;;;;5066538;28;20703;-57
2021/01/01 04:05:11;;;;;;;25.43;19.73;;;;;;;;;;5059405;28;20446;-57
2021/01/01 04:07:37;;;;;;;24.83;18.20;;;;;;;;;;5066033;28;20456;-57
2021/01/01 04:10:04;;;;;;;26.53;19.37;;;;;;;;;;5036416;28;20994;-57
2021/01/01 04:12:31;;;;;;;25.63;18.93;;;;;;;;;;5059400;28;20414;-57
2021/01/01 04:14:57;;;;;;;26.33;20.47;;;;;;;;;;5066828;28;20442;-57
2021/01/01 04:17:23;;;;;;;27.23;19.73;;;;;;;;;;5035212;28;20435;-57
2021/01/01 04:19:49;;;;;;;24.63;18.77;;;;;;;;;;5053678;28;20418;-58
2021/01/01 04:22:15;;;;;;;23.07;18.60;;;;;;;;;;5053830;28;20431;-60
2021/01/01 04:24:41;;;;;;;28.83;20.53;;;;;;;;;;5052510;28;20418;-57
2021/01/01 04:27:07;;;;;;;26.40;18.93;;;;;;;;;;5060245;28;20647;-57
2021/01/01 04:29:33;;;;;;;23.87;18.47;;;;;;;;;;5069100;28;20180;-58
2021/01/01 04:31:59;;;;;;;25.00;19.30;;;;;;;;;;5058988;28;20644;-58
2021/01/01 04:34:27;;;;;;;25.23;18.00;;;;;;;;;;5057272;28;20908;-57
2021/01/01 04:36:53;;;;;;;23.67;18.00;;;;;;;;;;5057153;28;20419;-57
2021/01/01 04:39:19;;;;;;;25.47;20.30;;;;;;;;;;5071244;28;20760;-58
2021/01/01 04:41:46;;;;;;;24.57;18.30;;;;;;;;;;5069115;28;20180;-57
2021/01/01 04:44:16;;;;;;;24.27;18.13;;;;;;;;;;5060188;28;20415;-57
2021/01/01 04:46:42;;;;;;;24.57;18.30;;;;;;;;;;5054329;28;20458;-57
2021/01/01 04:49:08;;;;;;;24.73;18.70;;;;;;;;;;5071839;28;20411;-57
2021/01/01 04:51:35;;;;;;;25.30;18.60;;;;;;;;;;5050838;28;20498;-57
2021/01/01 04:54:03;;;;;;;25.03;18.80;;;;;;;;;;5070328;28;20553;-57
2021/01/01 04:56:29;;;;;;;27.57;18.63;;;;;;;;;;5062135;28;21353;-57
2021/01/01 04:58:55;;;;;;;24.87;18.47;;;;;;;;;;5051133;28;20763;-57
2021/01/01 05:01:24;;;;;;;23.23;17.40;;;;;;;;;;5037461;28;20837;-59
2021/01/01 05:03:50;;;;;;;24.77;18.37;;;;;;;;;;5033648;28;20443;-57
2021/01/01 05:06:29;;;;;;;24.53;18.00;;;;;;;;;;5053132;28;20465;-57
2021/01/01 05:08:55;;;;;;;22.70;17.37;;;;;;;;;;5062397;28;20177;-57
2021/01/01 05:11:22;;;;;;;24.53;17.67;;;;;;;;;;5060777;28;20469;-59
2021/01/01 05:13:55;;;;;;;26.30;18.43;;;;;;;;;;5033427;28;20415;-56
2021/01/01 05:16:21;;;;;;;23.20;17.47;;;;;;;;;;5061589;28;20431;-59
2021/01/01 05:18:48;;;;;;;25.63;18.63;;;;;;;;;;5051256;28;20426;-57
2021/01/01 05:21:21;;;;;;;23.03;17.57;;;;;;;;;;5067779;28;20263;-57
2021/01/01 05:23:49;;;;;;;20.80;18.20;;;;;;;;;;5052610;28;20419;-57
2021/01/01 05:26:16;;;;;;;26.60;17.73;;;;;;;;;;5058765;28;20473;-57
2021/01/01 05:28:51;;;;;;;23.90;16.70;;;;;;;;;;5055151;28;20751;-57
2021/01/01 05:31:18;;;;;;;25.07;18.40;;;;;;;;;;5048557;28;20474;-58
2021/01/01 05:33:51;;;;;;;25.17;17.13;;;;;;;;;;5069563;28;20426;-57
2021/01/01 05:36:27;;;;;;;23.77;16.17;;;;;;;;;;5050027;28;20423;-57
2021/01/01 05:38:53;;;;;;;23.17;17.37;;;;;;;;;;5070252;28;20411;-56
2021/01/01 05:41:29;;;;;;;24.97;18.17;;;;;;;;;;5066050;28;20419;-57
2021/01/01 05:44:15;;;;;;;25.37;17.93;;;;;;;;;;5051139;28;20492;-58
2021/01/01 05:46:56;;;;;;;23.23;18.00;;;;;;;;;;5054613;28;20544;-57
2021/01/01 05:49:26;;;;;;;23.30;17.10;;;;;;;;;;5062912;28;20510;-57
2021/01/01 05:52:04;;;;;;;24.20;17.80;;;;;;;;;;5069211;28;20414;-57
2021/01/01 05:54:31;;;;;;;23.23;17.03;;;;;;;;;;5054646;28;20430;-57
2021/01/01 05:56:57;;;;;;;24.23;18.03;;;;;;;;;;5067611;28;20430;-58
2021/01/01 05:59:26;;;;;;;22.23;16.90;;;;;;;;;;5042008;28;20431;-57
2021/01/01 06:01:56;;;;;;;22.60;18.13;;;;;;;;;;5069129;28;21066;-57
2021/01/01 06:04:23;;;;;;;23.70;17.07;;;;;;;;;;5070540;28;20774;-57
2021/01/01 06:06:52;;;;;;;24.13;18.13;;;;;;;;;;5056543;28;20565;-57
2021/01/01 06:09:19;;;;;;;25.63;18.47;;;;;;;;;;5049770;28;20418;-57
2021/01/01 06:11:54;;;;;;;24.70;18.13;;;;;;;;;;5068057;28;20435;-57
2021/01/01 06:14:29;;;;;;;27.03;18.73;;;;;;;;;;5055126;28;20825;-60
2021/01/01 06:17:02;;;;;;;22.73;17.50;;;;;;;;;;5054972;28;20442;-57
2021/01/01 06:19:37;;;;;;;24.33;18.33;;;;;;;;;;5068681;28;20445;-57
2021/01/01 06:22:05;;;;;;;25.63;18.73;;;;;;;;;;5063307;28;20406;-56
2021/01/01 06:24:40;;;;;;;24.70;19.43;;;;;;;;;;5060771;28;20419;-57
2021/01/01 06:27:06;;;;;;;24.90;19.07;;;;;;;;;;5056370;28;20458;-57
2021/01/01 06:29:33;;;;;;;23.80;18.00;;;;;;;;;;5055825;28;20463;-57
2021/01/01 06:32:00;;;;;;;23.73;17.57;;;;;;;;;;5058884;28;20419;-56
2021/01/01 06:34:29;;;;;;;24.00;17.63;;;;;;;;;;5054710;28;20419;-58
2021/01/01 06:36:56;;;;;;;29.17;20.37;;;;;;;;;;5074117;28;20816;-59
2021/01/01 06:39:38;;;;;;;25.20;18.93;;;;;;;;;;5071390;28;20454;-56
2021/01/01 06:42:04;;;;;;;27.63;19.13;;;;;;;;;;5060034;28;20419;-57
2021/01/01 06:44:34;;;;;;;27.47;19.43;;;;;;;;;;5045859;28;20454;-59
2021/01/01 06:47:01;;;;;;;26.00;19.10;;;;;;;;;;5057473;28;20554;-58
2021/01/01 06:49:34;;;;;;;27.50;20.67;;;;;;;;;;5069454;28;20416;-57
2021/01/01 06:52:09;;;;;;;26.97;19.57;;;;;;;;;;5053889;28;20957;-56
2021/01/01 06:54:52;;;;;;;26.27;19.13;;;;;;;;;;5055660;28;20560;-56
2021/01/01 06:57:18;;;;;;;29.60;20.00;;;;;;;;;;5068591;28;20468;-56
2021/01/01 06:59:44;;;;;;;25.67;19.47;;;;;;;;;;5059657;28;21246;-57
2021/01/01 07:02:20;;;;;;;29.57;20.53;;;;;;;;;;5054177;28;20247;-56
2021/01/01 07:04:50;;;;;;;29.37;19.93;;;;;;;;;;5055234;28;20424;-57
2021/01/01 07:07:34;;;;;;;26.90;19.20;;;;;;;;;;5055591;28;20541;-59
2021/01/01 07:10:00;;;;;;;29.03;19.40;;;;;;;;;;5036436;28;20442;-56
2021/01/01 07:12:26;;;;;;;27.70;20.20;;;;;;;;;;5053580;28;20419;-58
2021/01/01 07:14:52;;;;;;;26.10;19.97;;;;;;;;;;5056597;28;20584;-57
2021/01/01 07:17:18;;;;;;;28.50;20.17;;;;;;;;;;5060251;28;20207;-57
2021/01/01 07:19:44;;;;;;;27.23;19.10;;;;;;;;;;5071138;28;20238;-57
2021/01/01 07:22:10;;;;;;;26.90;21.00;;;;;;;;;;5073459;28;20438;-56
2021/01/01 07:24:36;;;;;;;25.70;19.37;;;;;;;;;;5070921;28;20181;-57
2021/01/01 07:27:03;;;;;;;26.80;19.40;;;;;;;;;;5060712;28;20205;-57
2021/01/01 07:29:29;;;;;;;30.73;21.40;;;;;;;;;;5036946;28;20412;-56
2021/01/01 07:31:56;;;;;;;31.10;18.97;;;;;;;;;;5047154;28;20976;-57
2021/01/01 07:34:22;;;;;;;26.07;19.93;;;;;;;;;;5053964;28;20422;-56
2021/01/01 07:36:51;;;;;;;24.40;19.43;;;;;;;;;;5071874;28;20419;-56
2021/01/01 07:39:18;;;;;;;24.57;18.97;;;;;;;;;;5055835;28;20908;-56
2021/01/01 07:41:44;;;;;;;24.83;19.50;;;;;;;;;;5058177;28;20454;-57
2021/01/01 07:44:10;;;;;;;27.03;20.47;;;;;;;;;;5071994;28;20454;-57
2021/01/01 07:46:36;;;;;;;24.43;18.80;;;;;;;;;;5055626;28;20280;-57
2021/01/01 07:49:02;;;;;;;26.63;19.43;;;;;;;;;;5058284;28;20383;-57
2021/01/01 07:51:28;;;;;;;26.33;20.57;;;;;;;;;;5055588;28;20422;-57
2021/01/01 07:54:01;;;;;;;26.20;20.17;;;;;;;;;;5060841;28;20424;-57
2021/01/01 07:56:27;;;;;;;26.77;19.13;;;;;;;;;;5061135;28;20411;-57
2021/01/01 07:58:54;;;;;;;27.57;20.60;;;;;;;;;;5052892;28;20437;-57
2021/01/01 08:01:21;;;;;;;26.13;20.17;;;;;;;;;;5068924;28;20407;-57
2021/01/01 08:03:47;;;;;;;26.90;19.43;;;;;;;;;;5052644;28;20474;-57
2021/01/01 08:06:13;;;;;;;31.87;20.60;;;;;;;;;;5054067;28;20970;-57
2021/01/01 08:08:39;;;;;;;27.03;20.77;;;;;;;;;;5052390;28;20474;-57
2021/01/01 08:11:08;;;;;;;25.60;19.83;;;;;;;;;;5060839;28;20279;-56
2021/01/01 08:13:35;;;;;;;30.13;21.23;;;;;;;;;;5052895;28;20181;-57
2021/01/01 08:16:17;;;;;;;30.97;20.50;;;;;;;;;;5055150;28;20803;-57
2021/01/01 08:18:43;;;;;;;30.00;22.03;;;;;;;;;;5070764;28;20422;-57
2021/01/01 08:21:09;;;;;;;27.30;21.10;;;;;;;;;;5045632;28;20432;-56
2021/01/01 08:23:54;;;;;;;30.27;20.87;;;;;;;;;;5070430;28;20448;-57
2021/01/01 08:26:20;;;;;;;31.53;21.67;;;;;;;;;;5063294;28;20459;-58
2021/01/01 08:28:46;;;;;;;30.00;21.27;;;;;;;;;;5070579;28;20426;-56
2021/01/01 08:31:13;;;;;;;28.83;22.53;;;;;;;;;;5055948;28;20486;-57
2021/01/01 08:33:40;;;;;;;29.67;22.13;;;;;;;;;;5052410;28;20431;-57
2021/01/01 08:36:07;;;;;;;27.93;21.93;;;;;;;;;;5059468;28;20776;-57
2021/01/01 08:38:33;;;;;;;32.20;23.80;;;;;;;;;;5057736;28;20423;-57
2021/01/01 08:40:59;;;;;;;30.33;21.83;;;;;;;;;;5053470;28;20418;-56
2021/01/01 08:43:26;;;;;;;34.70;23.97;;;;;;;;;;5062232;28;20425;-57
2021/01/01 08:45:52;;;;;;;33.57;22.07;;;;;;;;;;5054529;28;20470;-59
2021/01/01 08:48:19;;;;;;;32.20;23.70;;;;;;;;;;5081650;28;20490;-57
2021/01/01 08:50:49;;;;;;;30.27;23.07;;;;;;;;;;5071187;28;20414;-57
2021/01/01 08:53:15;;;;;;;34.27;24.67;;;;;;;;;;5052070;28;20435;-57
2021/01/01 08:55:45;;;;;;;34.77;25.60;;;;;;;;;;5052335;28;20495;-58
2021/01/01 08:58:11;;;;;;;33.10;23.77;;;;;;;;;;5054144;28;20488;-57
2021/01/01 09:00:38;;;;;;;32.10;24.20;;;;;;;;;;5047712;28;20476;-59
2021/01/01 09:03:04;;;;;;;33.43;23.93;;;;;;;;;;5061597;28;20462;-57
2021/01/01 09:05:30;;;;;;;34.93;26.83;;;;;;;;;;5059839;28;20532;-57
2021/01/01 09:08:16;;;;;;;35.80;27.80;;;;;;;;;;5050912;28;20459;-57
2021/01/01 09:10:43;;;;;;;37.67;26.60;;;;;;;;;;5050704;28;20415;-57
2021/01/01 09:13:24;;;;;;;36.90;26.83;;;;;;;;;;5043226;28;20419;-57
2021/01/01 09:16:11;;;;;;;37.00;27.77;;;;;;;;;;5051838;28;20426;-56
2021/01/01 09:18:37;;;;;;;40.87;27.60;;;;;;;;;;5052543;28;20384;-57
2021/01/01 09:21:17;;;;;;;39.50;28.47;;;;;;;;;;5050020;28;20429;-57
2021/01/01 09:23:50;;;;;;;37.00;28.03;;;;;;;;;;5075765;28;20959;-57
2021/01/01 09:26:23;;;;;;;40.17;28.03;;;;;;;;;;5051653;28;20455;-57
2021/01/01 09:28:49;;;;;;;41.60;28.90;;;;;;;;;;5069681;28;20762;-57
2021/01/01 09:31:16;;;;;;;39.90;28.63;;;;;;;;;;5057633;28;20443;-58
2021/01/01 09:33:56;;;;;;;40.80;27.60;;;;;;;;;;5051297;28;20428;-58
2021/01/01 09:36:22;;;;;;;40.57;30.43;;;;;;;;;;5053941;28;20420;-57
2021/01/01 09:38:47;;;;;;;40.67;29.90;;;;;;;;;;5044701;28;20429;-57
2021/01/01 09:41:16;;;;;;;42.00;29.70;;;;;;;;;;5060898;28;20598;-57
2021/01/01 09:43:42;;;;;;;43.60;30.60;;;;;;;;;;5069501;28;20744;-60
2021/01/01 09:46:08;;;;;;;42.50;31.20;;;;;;;;;;5050865;28;20810;-57
2021/01/01 09:48:34;;;;;;;43.73;30.63;;;;;;;;;;5068911;28;20406;-57
2021/01/01 09:51:00;;;;;;;42.03;31.43;;;;;;;;;;5042982;28;20525;-57
2021/01/01 09:53:26;;;;;;;42.63;30.13;;;;;;;;;;5052729;28;20419;-57
2021/01/01 09:55:52;;;;;;;49.80;32.10;;;;;;;;;;5050291;28;20898;-59
2021/01/01 09:58:18;;;;;;;43.97;31.73;;;;;;;;;;5050506;28;20177;-58
2021/01/01 10:00:45;;;;;;;44.03;33.63;;;;;;;;;;5065053;28;20183;-57
2021/01/01 10:03:11;;;;;;;38.57;30.80;;;;;;;;;;5078072;28;20446;-57
2021/01/01 10:05:37;;;;;;;43.47;31.53;;;;;;;;;;5081881;28;20449;-57
2021/01/01 10:08:03;;;;;;;45.93;31.73;;;;;;;;;;5053802;28;20438;-57
2021/01/01 10:10:32;;;;;;;43.17;31.33;;;;;;;;;;5067480;28;20224;-57
2021/01/01 10:12:59;;;;;;;45.03;31.53;;;;;;;;;;5058667;28;20216;-57
2021/01/01 10:15:25;;;;;;;46.73;33.93;;;;;;;;;;5064671;28;20781;-57
2021/01/01 10:17:51;;;;;;;43.70;32.30;;;;;;;;;;5073877;28;20417;-57
2021/01/01 10:20:17;;;;;;;45.93;33.33;;;;;;;;;;5093724;28;20394;-58
2021/01/01 10:22:43;;;;;;;47.47;33.73;;;;;;;;;;5053510;28;20427;-58
2021/01/01 10:25:09;;;;;;;47.77;33.53;;;;;;;;;;5055373;28;20418;-57
2021/01/01 10:27:35;;;;;;;45.53;32.50;;;;;;;;;;5061366;28;20877;-57
2021/01/01 10:30:01;;;;;;;45.83;32.40;;;;;;;;;;5082243;28;20941;-58
2021/01/01 10:32:27;;;;;;;48.13;34.03;;;;;;;;;;5044317;28;20506;-57
2021/01/01 10:34:53;;;;;;;49.07;35.30;;;;;;;;;;5069156;28;20900;-57
2021/01/01 10:37:19;;;;;;;49.40;33.00;;;;;;;;;;5055546;28;20207;-57
2021/01/01 10:39:45;;;;;;;49.97;33.10;;;;;;;;;;5054362;28;20208;-57
2021/01/01 10:42:11;;;;;;;42.30;31.83;;;;;;;;;;5051806;28;20176;-57
2021/01/01 10:44:38;;;;;;;44.53;33.33;;;;;;;;;;5056888;28;20479;-57
2021/01/01 10:47:04;;;;;;;50.03;33.37;;;;;;;;;;5062788;28;20280;-57
2021/01/01 10:49:30;;;;;;;45.67;33.97;;;;;;;;;;5053393;28;20977;-57
2021/01/01 10:51:57;;;;;;;46.10;32.97;;;;;;;;;;5052790;28;20897;-57
2021/01/01 10:54:23;;;;;;;47.27;33.57;;;;;;;;;;5072455;28;20906;-60
2021/01/01 10:56:49;;;;;;;46.77;32.20;;;;;;;;;;5073544;28;20445;-57
2021/01/01 10:59:15;;;;;;;48.57;32.73;;;;;;;;;;5083015;28;20422;-57
2021/01/01 11:01:41;;;;;;;45.43;32.60;;;;;;;;;;5046922;28;20639;-57
2021/01/01 11:04:07;;;;;;;46.93;32.33;;;;;;;;;;5092997;28;20211;-57
2021/01/01 11:06:39;;;;;;;43.33;31.77;;;;;;;;;;5073139;28;20311;-58
2021/01/01 11:09:05;;;;;;;44.23;32.37;;;;;;;;;;5054180;28;20176;-58
2021/01/01 11:11:31;;;;;;;45.93;32.47;;;;;;;;;;5064387;28;20522;-57
2021/01/01 11:14:07;;;;;;;42.73;32.17;;;;;;;;;;5045229;28;20498;-57
2021/01/01 12:25:27;;;;;;;38.50;27.03;;;;;;;;;;5071731;28;20441;-57
2021/01/01 12:27:57;;;;;;;37.17;26.80;;;;;;;;;;5054339;28;20451;-57
2021/01/01 12:30:25;;;;;;;37.80;26.50;;;;;;;;;;5061833;28;20521;-57
2021/01/01 12:32:52;;;;;;;38.30;27.27;;;;;;;;;;5034441;28;20420;-57
2021/01/01 12:35:18;;;;;;;38.50;27.40;;;;;;;;;;5053180;28;20424;-57
2021/01/01 12:37:44;;;;;;;39.07;27.57;;;;;;;;;;5033502;28;20447;-60
2021/01/01 12:40:10;;;;;;;35.57;25.73;;;;;;;;;;5057281;28;20428;-57
2021/01/01 12:42:36;;;;;;;37.50;26.27;;;;;;;;;;5064598;28;20973;-57
2021/01/01 12:45:03;;;;;;;37.23;26.63;;;;;;;;;;5069495;28;20419;-57
2021/01/01 12:47:31;;;;;;;36.73;26.30;;;;;;;;;;5071680;28;20575;-60
2021/01/01 12:49:57;;;;;;;36.40;26.40;;;;;;;;;;5069206;28;20719;-57
2021/01/01 12:52:23;;;;;;;35.47;26.10;;;;;;;;;;5053575;28;20419;-57
2021/01/01 12:54:49;;;;;;;30.90;22.90;;;;;;;;;;5059792;28;20185;-58
2021/01/01 12:57:15;;;;;;;37.03;25.03;;;;;;;;;;5063662;28;20624;-58
2021/01/01 12:59:41;;;;;;;34.13;24.70;;;;;;;;;;5060056;28;20521;-58
2021/01/01 13:02:07;;;;;;;35.47;26.17;;;;;;;;;;5071114;28;20259;-58
2021/01/01 13:04:33;;;;;;;35.13;24.10;;;;;;;;;;5063642;28;20193;-58
2021/01/01 13:06:59;;;;;;;32.20;24.30;;;;;;;;;;5052084;28;21195;-58
2021/01/01 13:09:25;;;;;;;31.60;23.43;;;;;;;;;;5034713;28;20453;-59
2021/01/01 13:11:51;;;;;;;30.23;23.50;;;;;;;;;;5057472;28;20427;-58
2021/01/01 13:14:17;;;;;;;29.70;22.43;;;;;;;;;;5058599;28;20419;-58
2021/01/01 13:16:45;;;;;;;35.70;24.17;;;;;;;;;;5043642;28;20185;-58
2021/01/01 13:19:11;;;;;;;32.37;22.40;;;;;;;;;;5056669;28;20557;-58
2021/01/01 13:21:38;;;;;;;31.60;23.77;;;;;;;;;;5065376;28;20785;-58
2021/01/01 13:24:05;;;;;;;30.17;21.53;;;;;;;;;;5063643;28;20427;-61
2021/01/01 13:26:31;;;;;;;31.13;21.27;;;;;;;;;;5038111;28;21379;-58
2021/01/01 13:28:58;;;;;;;33.07;21.13;;;;;;;;;;5077837;28;20418;-58
2021/01/01 13:31:32;;;;;;;28.10;20.10;;;;;;;;;;5064542;28;20446;-57
2021/01/01 13:33:58;;;;;;;31.20;20.80;;;;;;;;;;5062154;28;20950;-58
2021/01/01 13:36:24;;;;;;;27.67;20.40;;;;;;;;;;5060164;28;20438;-59
2021/01/01 13:38:50;;;;;;;29.30;20.33;;;;;;;;;;5041041;28;20427;-60
2021/01/01 13:41:16;;;;;;;27.90;20.17;;;;;;;;;;5054096;28;20428;-58
2021/01/01 13:43:43;;;;;;;28.00;19.70;;;;;;;;;;5051598;28;20185;-58
2021/01/01 13:46:09;;;;;;;25.00;18.07;;;;;;;;;;5041602;28;21000;-57
2021/01/01 13:48:36;;;;;;;28.63;18.87;;;;;;;;;;5066722;28;20426;-57
2021/01/01 13:51:03;;;;;;;24.50;19.60;;;;;;;;;;5050351;28;20472;-57
2021/01/01 13:53:29;;;;;;;28.13;18.73;;;;;;;;;;5060609;28;21017;-57
2021/01/01 13:55:55;;;;;;;26.40;17.73;;;;;;;;;;5050310;28;20499;-58
2021/01/01 13:58:21;;;;;;;24.73;18.57;;;;;;;;;;5043086;28;20947;-58
2021/01/01 14:00:49;;;;;;;20.83;17.00;;;;;;;;;;5069129;28;20419;-57
2021/01/01 14:03:15;;;;;;;23.90;17.53;;;;;;;;;;5069877;28;20458;-58
2021/01/01 14:05:41;;;;;;;26.10;17.80;;;;;;;;;;5070343;28;21000;-57
2021/01/01 14:08:07;;;;;;;24.00;17.03;;;;;;;;;;5061895;28;20203;-57
2021/01/01 14:10:34;;;;;;;24.13;16.17;;;;;;;;;;5067781;28;20658;-57
2021/01/01 14:13:00;;;;;;;24.03;17.60;;;;;;;;;;5073077;28;20164;-57
2021/01/01 14:15:26;;;;;;;28.07;17.87;;;;;;;;;;5059772;28;20169;-58
2021/01/01 14:17:52;;;;;;;27.23;17.07;;;;;;;;;;5059721;28;20779;-57
2021/01/01 14:20:18;;;;;;;22.10;17.00;;;;;;;;;;5070149;28;21102;-57
2021/01/01 14:22:44;;;;;;;24.27;16.77;;;;;;;;;;5063894;28;20183;-57
2021/01/01 14:25:11;;;;;;;23.17;15.73;;;;;;;;;;5049463;28;20259;-57
2021/01/01 14:27:37;;;;;;;22.13;15.83;;;;;;;;;;5038931;28;20453;-57
2021/01/01 14:30:03;;;;;;;18.93;14.90;;;;;;;;;;5062278;28;20446;-57
2021/01/01 14:32:29;;;;;;;24.67;16.47;;;;;;;;;;5041252;28;20181;-57
2021/01/01 14:34:55;;;;;;;22.00;16.23;;;;;;;;;;5069335;28;20403;-57
2021/01/01 14:37:21;;;;;;;25.17;18.00;;;;;;;;;;5069194;28;20409;-58
2021/01/01 14:39:47;;;;;;;19.77;15.40;;;;;;;;;;5060941;28;20408;-57
2021/01/01 14:42:13;;;;;;;22.47;15.47;;;;;;;;;;5048205;28;20279;-57
2021/01/01 14:44:39;;;;;;;23.83;17.07;;;;;;;;;;5051124;28;20207;-57
2021/01/01 14:47:05;;;;;;;24.67;17.07;;;;;;;;;;5031897;28;20201;-57
2021/01/01 14:49:31;;;;;;;25.07;16.47;;;;;;;;;;5053087;28;20180;-58
2021/01/01 14:51:57;;;;;;;23.00;16.33;;;;;;;;;;5053303;28;20165;-57
2021/01/01 14:54:25;;;;;;;22.73;17.43;;;;;;;;;;5053121;28;20511;-57
2021/01/01 14:56:51;;;;;;;27.00;17.97;;;;;;;;;;5066029;28;20188;-57
2021/01/01 14:59:18;;;;;;;23.60;17.37;;;;;;;;;;5054016;28;20932;-57
2021/01/01 15:01:44;;;;;;;25.20;18.57;;;;;;;;;;5044921;28;20661;-58
2021/01/01 15:04:12;;;;;;;23.30;18.47;;;;;;;;;;5042811;28;20264;-58
2021/01/01 15:06:38;;;;;;;24.87;17.57;;;;;;;;;;5063870;28;20270;-60
2021/01/01 15:09:04;;;;;;;25.03;17.87;;;;;;;;;;5055295;28;20455;-57
2021/01/01 15:11:30;;;;;;;24.73;17.43;;;;;;;;;;5041623;28;20267;-57
2021/01/01 15:13:56;;;;;;;25.30;18.53;;;;;;;;;;5062624;28;20983;-57
2021/01/01 15:16:22;;;;;;;20.53;17.07;;;;;;;;;;5059754;28;20439;-57
2021/01/01 15:18:48;;;;;;;22.43;15.93;;;;;;;;;;5064887;28;20415;-59
2021/01/01 15:21:14;;;;;;;20.97;15.50;;;;;;;;;;5071208;28;20578;-57
2021/01/01 15:23:43;;;;;;;23.73;17.70;;;;;;;;;;5060222;28;20187;-57
2021/01/01 15:26:10;;;;;;;23.80;17.83;;;;;;;;;;5045328;28;20437;-57
2021/01/01 15:28:36;;;;;;;24.73;17.53;;;;;;;;;;5060460;28;20780;-57